createdAt,value
2022-12-26T00:00:18.051Z,69.66
2022-12-26T00:02:21.008Z,70.01
2022-12-26T00:04:48.194Z,70.41
2022-12-26T00:06:52.056Z,70.66
2022-12-26T00:09:00.666Z,70.43
2022-12-26T00:11:03.501Z,70.19
2022-12-26T00:13:38.681Z,69.76
2022-12-26T00:15:32.246Z,69.97
2022-12-26T00:17:35.095Z,70.45
2022-12-26T00:19:38.098Z,69.79
2022-12-26T00:21:42.993Z,70.56
2022-12-26T00:23:46.356Z,70.48
2022-12-26T00:25:50.578Z,70.46
2022-12-26T00:27:53.507Z,70.18
2022-12-26T00:29:56.289Z,70.39
2022-12-26T00:32:00.414Z,70.24
2022-12-26T00:34:03.986Z,69.88
2022-12-26T00:36:09.412Z,70.00
2022-12-26T00:38:15.119Z,69.47
2022-12-26T00:40:18.518Z,69.43
2022-12-26T00:42:22.659Z,69.18
2022-12-26T00:44:28.521Z,69.89
2022-12-26T00:46:33.066Z,69.97
2022-12-26T00:48:36.446Z,69.15
2022-12-26T00:50:39.306Z,69.49
2022-12-26T00:52:42.144Z,69.05
2022-12-26T00:54:45.029Z,69.51
2022-12-26T00:56:47.878Z,69.95
2022-12-26T00:58:52.019Z,70.01
2022-12-26T01:00:55.640Z,70.14
2022-12-26T01:02:58.678Z,69.61
2022-12-26T01:05:01.449Z,69.74
2022-12-26T01:07:04.221Z,69.97
2022-12-26T01:09:07.027Z,69.47
2022-12-26T01:11:12.543Z,69.80
2022-12-26T01:13:15.957Z,69.79
2022-12-26T01:15:20.647Z,69.33
2022-12-26T01:17:23.383Z,69.11
2022-12-26T01:19:26.173Z,69.38
2022-12-26T01:21:28.962Z,69.25
2022-12-26T01:23:31.922Z,69.39
2022-12-26T01:25:34.183Z,69.78
2022-12-26T01:27:36.891Z,69.76
2022-12-26T01:29:39.685Z,69.83
2022-12-26T01:31:43.937Z,69.89
2022-12-26T01:33:46.757Z,69.24
2022-12-26T01:35:54.111Z,69.93
2022-12-26T01:37:57.155Z,69.85
2022-12-26T01:40:00.061Z,69.36
2022-12-26T01:42:02.805Z,69.17
2022-12-26T01:44:07.644Z,69.82
2022-12-26T01:46:10.637Z,69.86
2022-12-26T01:48:20.876Z,69.96
2022-12-26T01:50:31.421Z,70.05
2022-12-26T01:52:38.982Z,69.96
2022-12-26T01:54:46.637Z,69.69
2022-12-26T01:56:49.735Z,69.38
2022-12-26T01:58:56.873Z,69.00
2022-12-26T02:01:00.313Z,69.32
2022-12-26T02:03:20.845Z,69.18
2022-12-26T02:05:35.088Z,69.25
2022-12-26T02:07:43.099Z,70.04
2022-12-26T02:09:46.003Z,69.59
2022-12-26T02:12:35.673Z,69.24
2022-12-26T02:14:16.830Z,69.37
2022-12-26T02:16:20.732Z,69.87
2022-12-26T02:18:23.566Z,70.12
2022-12-26T02:20:30.201Z,70.03
2022-12-26T02:23:13.990Z,70.02
2022-12-26T02:25:41.959Z,69.74
2022-12-26T02:28:02.156Z,69.32
2022-12-26T02:30:11.510Z,69.79
2022-12-26T02:32:27.823Z,69.73
2022-12-26T02:34:43.563Z,70.25
2022-12-26T02:36:58.435Z,70.00
2022-12-26T02:39:43.799Z,70.08
2022-12-26T02:41:49.448Z,69.79
2022-12-26T02:44:23.622Z,70.48
2022-12-26T02:46:51.447Z,69.71
2022-12-26T02:49:06.104Z,70.46
2022-12-26T02:51:39.850Z,69.81
2022-12-26T02:54:10.184Z,70.30
2022-12-26T02:56:36.996Z,69.81
2022-12-26T02:59:05.845Z,69.65
2022-12-26T03:01:45.025Z,70.27
2022-12-26T03:04:07.601Z,70.40
2022-12-26T03:06:34.368Z,70.57
2022-12-26T03:08:59.079Z,70.98
2022-12-26T03:11:19.358Z,70.62
2022-12-26T03:13:29.459Z,70.75
2022-12-26T03:15:54.195Z,70.20
2022-12-26T03:18:00.997Z,70.49
2022-12-26T03:20:10.196Z,70.51
2022-12-26T03:22:28.319Z,70.34
2022-12-26T03:24:51.165Z,70.78
2022-12-26T03:26:54.558Z,70.86
2022-12-26T03:29:19.151Z,70.27
2022-12-26T03:31:21.283Z,70.26
2022-12-26T03:33:43.939Z,70.36
2022-12-26T03:35:46.888Z,71.36
2022-12-26T03:37:54.436Z,70.57
2022-12-26T03:40:27.565Z,70.68
2022-12-26T03:42:55.960Z,71.05
2022-12-26T03:45:21.960Z,70.58
2022-12-26T03:47:46.283Z,70.48
2022-12-26T03:50:12.086Z,71.26
2022-12-26T03:52:35.990Z,71.35
2022-12-26T03:55:04.699Z,71.08
2022-12-26T03:57:30.479Z,71.00
2022-12-26T03:59:54.391Z,70.80
2022-12-26T04:02:19.133Z,70.69
2022-12-26T04:04:43.708Z,70.73
2022-12-26T04:07:11.606Z,70.84
2022-12-26T04:09:36.866Z,71.27
2022-12-26T04:12:02.833Z,70.44
2022-12-26T04:14:29.450Z,70.09
2022-12-26T04:16:52.891Z,69.74
2022-12-26T04:19:26.971Z,69.57
2022-12-26T04:21:53.537Z,70.09
2022-12-26T04:24:18.665Z,70.02
2022-12-26T04:26:47.232Z,69.77
2022-12-26T04:29:09.257Z,70.11
2022-12-26T04:31:36.172Z,70.20
2022-12-26T04:34:03.573Z,69.85
2022-12-26T04:36:28.206Z,70.03
2022-12-26T04:38:56.280Z,70.53
2022-12-26T04:41:20.574Z,70.58
2022-12-26T04:43:49.086Z,70.43
2022-12-26T04:45:55.853Z,70.49
2022-12-26T04:48:16.034Z,70.34
2022-12-26T04:50:19.983Z,70.73
2022-12-26T04:52:22.806Z,70.12
2022-12-26T04:54:26.272Z,70.21
2022-12-26T04:56:29.460Z,70.77
2022-12-26T04:58:32.335Z,70.37
2022-12-26T05:00:35.145Z,70.85
2022-12-26T05:02:56.801Z,70.38
2022-12-26T05:05:17.475Z,70.29
2022-12-26T05:07:41.243Z,70.54
2022-12-26T05:09:44.169Z,70.44
2022-12-26T05:11:47.190Z,70.63
2022-12-26T05:13:50.024Z,70.79
2022-12-26T05:16:10.342Z,70.37
2022-12-26T05:18:29.114Z,70.45
2022-12-26T05:20:49.591Z,70.88
2022-12-26T05:23:11.017Z,70.90
2022-12-26T05:25:44.187Z,71.00
2022-12-26T05:28:04.710Z,70.62
2022-12-26T05:30:08.889Z,70.80
2022-12-26T05:32:11.666Z,70.56
2022-12-26T05:34:17.434Z,71.09
2022-12-26T05:36:22.595Z,70.76
2022-12-26T05:38:25.543Z,71.08
2022-12-26T05:40:28.374Z,70.77
2022-12-26T05:42:31.169Z,70.67
2022-12-26T05:44:33.956Z,70.24
2022-12-26T05:46:37.424Z,70.08
2022-12-26T05:48:40.259Z,70.64
2022-12-26T05:50:44.448Z,70.69
2022-12-26T05:52:47.219Z,70.48
2022-12-26T05:54:50.004Z,70.20
2022-12-26T05:56:54.456Z,70.09
2022-12-26T05:58:59.193Z,70.13
2022-12-26T06:01:05.393Z,70.07
2022-12-26T06:03:08.266Z,70.53
2022-12-26T06:05:11.342Z,70.17
2022-12-26T06:07:15.468Z,70.23
2022-12-26T06:09:18.218Z,70.20
2022-12-26T06:11:23.054Z,70.74
2022-12-26T06:13:26.185Z,70.46
2022-12-26T06:15:28.956Z,70.58
2022-12-26T06:17:31.737Z,70.77
2022-12-26T06:19:34.510Z,71.12
2022-12-26T06:21:37.605Z,71.17
2022-12-26T06:23:42.732Z,70.86
2022-12-26T06:25:45.286Z,70.79
2022-12-26T06:27:48.055Z,70.71
2022-12-26T06:29:50.792Z,70.89
2022-12-26T06:31:53.655Z,70.60
2022-12-26T06:33:59.298Z,70.91
2022-12-26T06:36:06.993Z,71.22
2022-12-26T06:38:10.199Z,71.32
2022-12-26T06:40:14.469Z,71.16
2022-12-26T06:42:17.211Z,71.59
2022-12-26T06:44:20.151Z,72.04
2022-12-26T06:46:24.818Z,72.10
2022-12-26T06:48:28.127Z,72.38
2022-12-26T06:50:31.137Z,72.13
2022-12-26T06:52:34.087Z,72.07
2022-12-26T06:54:36.896Z,72.24
2022-12-26T06:56:41.110Z,72.63
2022-12-26T06:58:44.052Z,72.46
2022-12-26T07:00:46.889Z,72.55
2022-12-26T07:02:52.586Z,72.53
2022-12-26T07:04:55.369Z,72.52
2022-12-26T07:06:58.207Z,72.50
2022-12-26T07:09:03.620Z,72.79
2022-12-26T07:11:06.472Z,73.08
2022-12-26T07:13:10.571Z,73.51
2022-12-26T07:15:13.593Z,73.45
2022-12-26T07:17:16.336Z,73.63
2022-12-26T07:19:19.185Z,73.23
2022-12-26T07:21:23.637Z,73.70
2022-12-26T07:23:26.413Z,74.03
2022-12-26T07:25:29.190Z,73.94
2022-12-26T07:27:32.036Z,74.11
2022-12-26T07:29:36.133Z,74.05
2022-12-26T07:31:39.460Z,74.31
2022-12-26T07:33:42.343Z,73.91
2022-12-26T07:35:45.162Z,73.94
2022-12-26T07:37:47.952Z,74.29
2022-12-26T07:39:55.232Z,74.16
2022-12-26T07:42:01.615Z,74.30
2022-12-26T07:44:05.976Z,74.92
2022-12-26T07:46:10.282Z,74.45
2022-12-26T07:48:13.096Z,74.87
2022-12-26T07:50:15.938Z,74.52
2022-12-26T07:52:19.824Z,74.37
2022-12-26T07:54:22.796Z,75.18
2022-12-26T07:56:25.681Z,74.91
2022-12-26T07:58:28.907Z,75.07
2022-12-26T08:00:31.749Z,74.83
2022-12-26T08:02:36.137Z,75.60
2022-12-26T08:04:39.226Z,75.31
2022-12-26T08:06:42.039Z,76.15
2022-12-26T08:08:50.501Z,75.92
2022-12-26T08:11:00.033Z,75.49
2022-12-26T08:13:03.761Z,75.91
2022-12-26T08:15:07.407Z,76.17
2022-12-26T08:17:10.299Z,76.47
2022-12-26T08:19:14.498Z,76.00
2022-12-26T08:21:17.459Z,76.09
2022-12-26T08:23:20.292Z,76.41
2022-12-26T08:25:23.047Z,76.48
2022-12-26T08:27:25.889Z,76.32
2022-12-26T08:29:28.739Z,76.59
2022-12-26T08:31:31.601Z,76.88
2022-12-26T08:33:35.585Z,77.17
2022-12-26T08:35:40.602Z,77.13
2022-12-26T08:37:44.301Z,77.97
2022-12-26T08:39:47.075Z,78.21
2022-12-26T08:41:49.783Z,77.92
2022-12-26T08:46:17.517Z,78.10
2022-12-26T08:48:20.363Z,76.31
2022-12-26T08:50:23.129Z,76.68
2022-12-26T08:52:27.263Z,76.10
2022-12-26T08:54:30.084Z,76.10
2022-12-26T08:56:33.120Z,75.66
2022-12-26T08:58:36.315Z,75.35
2022-12-26T09:00:39.104Z,74.95
2022-12-26T09:02:41.975Z,75.46
2022-12-26T09:04:44.874Z,74.85
2022-12-26T09:06:47.649Z,75.20
2022-12-26T09:08:52.503Z,75.11
2022-12-26T09:10:55.653Z,75.27
2022-12-26T09:12:58.392Z,75.45
2022-12-26T09:15:01.169Z,74.97
2022-12-26T09:17:05.078Z,75.26
2022-12-26T09:19:07.923Z,75.41
2022-12-26T09:21:12.082Z,75.61
2022-12-26T09:23:15.396Z,75.74
2022-12-26T09:25:20.371Z,75.61
2022-12-26T09:27:23.645Z,75.59
2022-12-26T09:29:26.386Z,76.07
2022-12-26T09:31:31.410Z,75.94
2022-12-26T09:33:37.503Z,76.85
2022-12-26T09:35:40.950Z,76.53
2022-12-26T09:37:43.860Z,77.09
2022-12-26T09:39:46.676Z,77.25
2022-12-26T09:42:00.656Z,76.73
2022-12-26T09:44:10.200Z,77.26
2022-12-26T09:46:19.636Z,77.66
2022-12-26T09:48:28.719Z,78.29
2022-12-26T09:50:39.630Z,78.60
2022-12-26T09:52:51.780Z,77.95
2022-12-26T09:54:58.571Z,78.13
2022-12-26T09:57:14.567Z,77.73
2022-12-26T09:59:24.244Z,76.97
2022-12-26T10:01:31.186Z,75.76
2022-12-26T10:03:39.165Z,74.81
2022-12-26T10:05:58.795Z,74.40
2022-12-26T10:08:14.182Z,73.75
2022-12-26T10:10:21.559Z,73.50
2022-12-26T10:12:37.896Z,73.61
2022-12-26T10:14:45.110Z,72.68
2022-12-26T10:16:54.278Z,72.80
2022-12-26T10:19:04.227Z,72.12
2022-12-26T10:21:30.211Z,72.66
2022-12-26T10:23:39.692Z,72.17
2022-12-26T10:25:46.351Z,72.24
2022-12-26T10:27:51.855Z,72.18
2022-12-26T10:29:59.352Z,72.13
2022-12-26T10:32:06.260Z,71.98
2022-12-26T10:34:17.809Z,71.62
2022-12-26T10:36:30.622Z,71.62
2022-12-26T10:38:40.781Z,71.93
2022-12-26T10:40:47.339Z,71.44
2022-12-26T10:42:54.534Z,72.17
2022-12-26T10:44:58.453Z,71.91
2022-12-26T10:47:15.824Z,71.58
2022-12-26T10:49:23.027Z,71.53
2022-12-26T10:51:26.817Z,71.51
2022-12-26T10:53:29.732Z,71.68
2022-12-26T10:55:35.199Z,71.50
2022-12-26T10:57:41.374Z,71.72
2022-12-26T10:59:49.730Z,71.39
2022-12-26T11:01:52.852Z,71.68
2022-12-26T11:03:57.318Z,72.21
2022-12-26T11:06:08.081Z,71.81
2022-12-26T11:08:19.843Z,71.61
2022-12-26T11:10:25.862Z,71.73
2022-12-26T11:12:40.041Z,71.84
2022-12-26T11:14:46.619Z,71.54
2022-12-26T11:16:50.312Z,71.62
2022-12-26T11:18:54.175Z,71.71
2022-12-26T11:21:13.130Z,71.31
2022-12-26T11:23:25.654Z,71.42
2022-12-26T11:25:29.391Z,71.59
2022-12-26T11:27:32.154Z,71.90
2022-12-26T11:29:37.086Z,71.83
2022-12-26T11:31:43.722Z,71.58
2022-12-26T11:33:47.452Z,71.69
2022-12-26T11:35:55.112Z,71.85
2022-12-26T11:37:59.397Z,71.59
2022-12-26T11:40:02.495Z,72.05
2022-12-26T11:42:11.266Z,71.89
2022-12-26T11:44:22.952Z,71.87
2022-12-26T11:46:36.498Z,71.34
2022-12-26T11:48:40.975Z,71.20
2022-12-26T11:50:46.322Z,71.04
2022-12-26T11:52:55.017Z,70.85
2022-12-26T11:54:57.918Z,70.73
2022-12-26T11:57:20.381Z,70.44
2022-12-26T11:59:24.347Z,70.05
2022-12-26T12:01:27.178Z,69.71
2022-12-26T12:03:33.219Z,69.65
2022-12-26T12:05:46.978Z,69.98
2022-12-26T12:08:06.316Z,69.95
2022-12-26T12:10:29.866Z,69.91
2022-12-26T12:12:39.523Z,69.98
2022-12-26T12:14:56.179Z,69.82
2022-12-26T12:17:12.010Z,69.43
2022-12-26T12:19:35.007Z,69.57
2022-12-26T12:21:45.567Z,69.29
2022-12-26T12:24:14.565Z,69.60
2022-12-26T12:26:22.707Z,69.49
2022-12-26T12:28:51.216Z,69.62
2022-12-26T12:31:02.628Z,69.44
2022-12-26T12:33:31.650Z,69.90
2022-12-26T12:35:53.506Z,69.69
2022-12-26T12:38:22.766Z,69.19
2022-12-26T12:40:37.055Z,69.02
2022-12-26T12:42:51.958Z,69.46
2022-12-26T12:45:14.895Z,69.36
2022-12-26T12:47:44.045Z,69.93
2022-12-26T12:49:59.572Z,69.98
2022-12-26T12:52:14.116Z,69.94
2022-12-26T12:54:38.743Z,70.38
2022-12-26T12:56:50.475Z,69.84
2022-12-26T12:59:01.773Z,69.73
2022-12-26T13:01:09.117Z,69.85
2022-12-26T13:03:20.338Z,69.78
2022-12-26T13:05:41.570Z,69.64
2022-12-26T13:07:50.908Z,69.85
2022-12-26T13:09:59.521Z,69.83
2022-12-26T13:12:05.927Z,69.74
2022-12-26T13:14:17.174Z,70.02
2022-12-26T13:16:24.343Z,70.12
2022-12-26T13:18:32.252Z,69.72
2022-12-26T13:20:41.541Z,69.77
2022-12-26T13:23:05.801Z,69.60
2022-12-26T13:25:12.560Z,70.06
2022-12-26T13:27:21.525Z,70.33
2022-12-26T13:29:34.704Z,69.61
2022-12-26T13:31:40.617Z,70.07
2022-12-26T13:33:44.791Z,70.05
2022-12-26T13:35:58.628Z,69.64
2022-12-26T13:38:01.420Z,69.47
2022-12-26T13:40:07.886Z,69.94
2022-12-26T13:42:49.611Z,69.69
2022-12-26T13:44:53.654Z,69.45
2022-12-26T13:46:58.840Z,69.88
2022-12-26T13:49:01.689Z,69.95
2022-12-26T13:51:06.582Z,70.51
2022-12-26T13:53:29.427Z,69.70
2022-12-26T13:55:43.894Z,70.06
2022-12-26T13:57:48.344Z,69.95
2022-12-26T14:00:04.891Z,69.90
2022-12-26T14:03:16.861Z,69.83
2022-12-26T14:05:22.493Z,69.96
2022-12-26T14:07:31.135Z,69.82
2022-12-26T14:10:00.252Z,69.83
2022-12-26T14:12:16.248Z,70.35
2022-12-26T14:14:33.461Z,70.57
2022-12-26T14:16:47.352Z,70.58
2022-12-26T14:18:58.252Z,70.26
2022-12-26T14:21:20.992Z,70.22
2022-12-26T14:23:35.849Z,70.45
2022-12-26T14:25:51.663Z,70.68
2022-12-26T14:28:01.219Z,70.51
2022-12-26T14:30:21.717Z,70.74
2022-12-26T14:32:41.115Z,70.37
2022-12-26T14:34:56.714Z,70.36
2022-12-26T14:37:12.123Z,70.72
2022-12-26T14:39:26.427Z,70.48
2022-12-26T14:41:47.208Z,70.72
2022-12-26T14:43:56.270Z,70.95
2022-12-26T14:46:03.947Z,70.81
2022-12-26T14:48:41.667Z,70.94
2022-12-26T14:50:46.592Z,70.70
2022-12-26T14:52:49.793Z,70.62
2022-12-26T14:54:53.622Z,70.69
2022-12-26T14:56:55.925Z,70.79
2022-12-26T14:59:30.283Z,70.39
2022-12-26T15:02:01.467Z,70.55
2022-12-26T15:04:08.273Z,70.91
2022-12-26T15:06:46.469Z,70.85
2022-12-26T15:09:05.134Z,70.55
2022-12-26T15:11:37.809Z,70.82
2022-12-26T15:14:05.896Z,70.72
2022-12-26T15:16:28.740Z,71.20
2022-12-26T15:19:10.695Z,71.50
2022-12-26T15:21:49.335Z,71.28
2022-12-26T15:24:26.986Z,70.87
2022-12-26T15:27:10.454Z,71.37
2022-12-26T15:29:34.135Z,71.40
2022-12-26T15:31:50.007Z,71.21
2022-12-26T15:33:59.910Z,71.35
2022-12-26T15:36:08.181Z,71.24
2022-12-26T15:38:22.179Z,71.01
2022-12-26T15:40:28.604Z,71.52
2022-12-26T15:42:45.888Z,71.03
2022-12-26T15:44:58.299Z,69.92
2022-12-26T15:47:15.743Z,69.96
2022-12-26T15:49:40.475Z,69.62
2022-12-26T15:51:56.166Z,69.35
2022-12-26T15:54:15.784Z,68.82
2022-12-26T15:56:48.933Z,68.13
2022-12-26T15:59:09.484Z,67.92
2022-12-26T16:01:13.287Z,68.28
2022-12-26T16:03:42.706Z,67.97
2022-12-26T16:05:53.684Z,68.40
2022-12-26T16:08:05.024Z,68.82
2022-12-26T16:10:28.612Z,69.37
2022-12-26T16:12:34.083Z,70.24
2022-12-26T16:14:40.483Z,70.46
2022-12-26T16:16:43.415Z,71.13
2022-12-26T16:18:46.179Z,71.70
2022-12-26T16:21:09.126Z,72.42
2022-12-26T16:23:15.635Z,73.51
2022-12-26T16:25:22.817Z,74.15
2022-12-26T16:27:26.469Z,74.00
2022-12-26T16:29:31.393Z,74.93
2022-12-26T16:31:34.223Z,75.40
2022-12-26T16:33:41.151Z,76.44
2022-12-26T16:35:44.677Z,76.86
2022-12-26T16:37:48.100Z,76.81
2022-12-26T16:40:18.180Z,76.37
2022-12-26T16:42:31.897Z,75.95
2022-12-26T16:44:39.793Z,76.99
2022-12-26T16:46:42.741Z,77.98
2022-12-26T16:48:50.195Z,77.54
2022-12-26T16:50:56.098Z,77.88
2022-12-26T16:53:14.045Z,78.01
2022-12-26T16:55:42.719Z,79.07
2022-12-26T16:57:46.858Z,79.05
2022-12-26T16:59:53.391Z,78.60
2022-12-26T17:01:59.118Z,78.48
2022-12-26T17:04:05.364Z,78.52
2022-12-26T17:06:12.371Z,77.72
2022-12-26T17:08:16.128Z,78.90
2022-12-26T17:10:22.849Z,78.87
2022-12-26T17:12:29.381Z,78.09
2022-12-26T17:14:36.651Z,77.65
2022-12-26T17:16:39.499Z,78.15
2022-12-26T17:18:47.787Z,77.93
2022-12-26T17:20:50.812Z,77.53
2022-12-26T17:22:55.380Z,77.69
2022-12-26T17:25:26.463Z,77.02
2022-12-26T17:27:32.187Z,77.64
2022-12-26T17:29:49.218Z,76.93
2022-12-26T17:31:52.008Z,76.10
2022-12-26T17:33:56.661Z,74.96
2022-12-26T17:38:28.903Z,73.42
2022-12-26T17:40:35.288Z,74.40
2022-12-26T17:42:45.586Z,72.91
2022-12-26T17:44:49.775Z,72.62
2022-12-26T17:46:52.527Z,72.60
2022-12-26T17:48:55.276Z,71.62
2022-12-26T17:51:00.012Z,71.37
2022-12-26T17:53:08.019Z,72.25
2022-12-26T17:55:17.621Z,72.25
2022-12-26T17:57:22.737Z,72.83
2022-12-26T17:59:25.560Z,73.05
2022-12-26T18:01:29.960Z,73.13
2022-12-26T18:03:32.828Z,73.32
2022-12-26T18:05:37.230Z,73.42
2022-12-26T18:07:40.920Z,73.09
2022-12-26T18:09:44.315Z,73.21
2022-12-26T18:11:47.072Z,72.72
2022-12-26T18:13:49.760Z,72.39
2022-12-26T18:15:54.470Z,73.06
2022-12-26T18:17:59.033Z,73.11
2022-12-26T18:20:02.197Z,71.69
2022-12-26T18:22:13.875Z,71.68
2022-12-26T18:24:16.675Z,71.88
2022-12-26T18:26:25.079Z,71.53
2022-12-26T18:28:28.652Z,71.21
2022-12-26T18:30:31.541Z,70.99
2022-12-26T18:32:34.845Z,72.01
2022-12-26T18:34:39.028Z,72.09
2022-12-26T18:36:43.052Z,71.99
2022-12-26T18:38:46.202Z,72.51
2022-12-26T18:40:52.856Z,72.07
2022-12-26T18:42:55.931Z,72.79
2022-12-26T18:44:58.741Z,73.10
2022-12-26T18:47:01.578Z,73.15
2022-12-26T18:49:04.399Z,72.66
2022-12-26T18:51:08.631Z,73.00
2022-12-26T18:53:11.696Z,72.62
2022-12-26T18:55:14.626Z,72.25
2022-12-26T18:57:20.530Z,71.45
2022-12-26T18:59:23.453Z,71.65
2022-12-26T19:01:27.340Z,71.32
2022-12-26T19:03:30.371Z,71.15
2022-12-26T19:05:34.484Z,71.43
2022-12-26T19:07:38.624Z,71.29
2022-12-26T19:09:44.107Z,71.14
2022-12-26T19:11:47.056Z,71.41
2022-12-26T19:13:49.923Z,71.29
2022-12-26T19:15:52.687Z,71.16
2022-12-26T19:17:55.442Z,70.78
2022-12-26T19:19:59.084Z,70.75
2022-12-26T19:22:01.894Z,70.85
2022-12-26T19:24:06.579Z,70.41
2022-12-26T19:26:10.894Z,70.94
2022-12-26T19:28:13.722Z,71.02
2022-12-26T19:30:17.584Z,70.30
2022-12-26T19:32:20.380Z,70.12
2022-12-26T19:34:23.466Z,70.16
2022-12-26T19:36:26.307Z,70.31
2022-12-26T19:38:29.141Z,70.35
2022-12-26T19:40:33.276Z,70.23
2022-12-26T19:42:37.391Z,70.44
2022-12-26T19:44:40.270Z,70.37
2022-12-26T19:46:43.170Z,69.96
2022-12-26T19:48:46.829Z,70.37
2022-12-26T19:50:49.706Z,70.70
2022-12-26T19:52:52.466Z,70.22
2022-12-26T19:54:55.385Z,69.97
2022-12-26T19:56:59.594Z,69.93
2022-12-26T19:59:02.414Z,69.64
2022-12-26T20:01:10.036Z,69.64
2022-12-26T20:03:13.209Z,69.48
2022-12-26T20:05:16.094Z,69.68
2022-12-26T20:07:18.877Z,70.01
2022-12-26T20:09:21.677Z,69.40
2022-12-26T20:11:28.245Z,69.76
2022-12-26T20:13:32.369Z,69.85
2022-12-26T20:15:35.230Z,70.19
2022-12-26T20:17:38.049Z,70.58
2022-12-26T20:19:40.923Z,70.13
2022-12-26T20:21:43.764Z,69.67
2022-12-26T20:23:46.693Z,69.61
2022-12-26T20:25:49.484Z,69.53
2022-12-26T20:27:52.425Z,69.69
2022-12-26T20:29:56.581Z,68.95
2022-12-26T20:31:59.833Z,69.26
2022-12-26T20:34:03.396Z,69.22
2022-12-26T20:36:10.181Z,67.27
2022-12-26T20:38:12.930Z,67.05
2022-12-26T20:40:15.755Z,66.89
2022-12-26T20:42:19.510Z,65.65
2022-12-26T20:44:22.455Z,64.74
2022-12-26T20:46:28.157Z,64.54
2022-12-26T20:48:31.269Z,64.85
2022-12-26T20:50:34.096Z,64.23
2022-12-26T20:52:36.947Z,64.67
2022-12-26T20:54:39.749Z,64.07
2022-12-26T20:56:43.039Z,64.65
2022-12-26T20:58:46.111Z,64.23
2022-12-26T21:00:48.911Z,63.92
2022-12-26T21:02:53.913Z,64.06
2022-12-26T21:04:56.819Z,63.57
2022-12-26T21:06:59.932Z,63.42
2022-12-26T21:09:04.178Z,64.08
2022-12-26T21:11:08.741Z,64.13
2022-12-26T21:13:11.827Z,64.24
2022-12-26T21:15:14.649Z,63.75
2022-12-26T21:17:19.078Z,63.67
2022-12-26T21:19:25.055Z,63.38
2022-12-26T21:21:30.097Z,63.07
2022-12-26T21:23:32.881Z,62.86
2022-12-26T21:25:38.257Z,63.22
2022-12-26T21:27:42.914Z,63.67
2022-12-26T21:29:46.006Z,63.51
2022-12-26T21:31:49.527Z,63.49
2022-12-26T21:33:52.821Z,63.52
2022-12-26T21:35:57.186Z,63.62
2022-12-26T21:38:00.255Z,64.14
2022-12-26T21:40:03.243Z,64.26
2022-12-26T21:42:08.152Z,64.36
2022-12-26T21:44:10.806Z,64.58
2022-12-26T21:46:17.947Z,64.88
2022-12-26T21:48:20.773Z,64.87
2022-12-26T21:50:23.529Z,65.07
2022-12-26T21:52:27.922Z,65.35
2022-12-26T21:54:49.415Z,65.37
2022-12-26T21:56:52.704Z,65.42
2022-12-26T21:59:15.315Z,65.67
2022-12-26T22:01:18.737Z,66.02
2022-12-26T22:03:39.304Z,66.42
2022-12-26T22:05:42.827Z,65.89
2022-12-26T22:07:47.680Z,65.36
2022-12-26T22:09:50.302Z,64.19
2022-12-26T22:12:10.445Z,64.81
2022-12-26T22:14:13.252Z,64.48
2022-12-26T22:16:16.250Z,65.01
2022-12-26T22:18:19.671Z,64.69
2022-12-26T22:20:22.865Z,64.65
2022-12-26T22:22:25.732Z,64.22
2022-12-26T22:24:29.889Z,63.77
2022-12-26T22:26:32.802Z,62.81
2022-12-26T22:28:35.929Z,62.46
2022-12-26T22:30:38.758Z,61.55
2022-12-26T22:32:41.672Z,61.46
2022-12-26T22:34:46.287Z,61.62
2022-12-26T22:36:49.918Z,61.24
2022-12-26T22:38:52.936Z,60.93
2022-12-26T22:40:59.664Z,60.86
2022-12-26T22:43:02.556Z,60.94
2022-12-26T22:45:06.030Z,61.24
2022-12-26T22:47:08.814Z,61.11
2022-12-26T22:49:11.860Z,60.98
2022-12-26T22:51:17.156Z,60.46
2022-12-26T22:53:23.072Z,60.48
2022-12-26T22:55:25.909Z,60.49
2022-12-26T22:57:30.070Z,60.27
2022-12-26T23:00:06.371Z,60.12
2022-12-26T23:01:55.693Z,59.74
2022-12-26T23:04:00.605Z,59.46
2022-12-26T23:06:03.458Z,59.17
2022-12-26T23:08:07.547Z,59.86
2022-12-26T23:10:18.873Z,59.30
2022-12-26T23:12:40.116Z,59.18
2022-12-26T23:14:44.548Z,59.96
2022-12-26T23:16:52.402Z,59.42
2022-12-26T23:19:17.303Z,58.32
2022-12-26T23:21:38.833Z,58.81
2022-12-26T23:23:42.097Z,58.93
2022-12-26T23:25:44.917Z,58.75
2022-12-26T23:28:05.081Z,58.95
2022-12-26T23:30:21.281Z,58.63
2022-12-26T23:32:24.040Z,58.28
2022-12-26T23:34:27.090Z,58.30
2022-12-26T23:36:29.920Z,58.31
2022-12-26T23:38:32.729Z,58.38
2022-12-26T23:40:35.561Z,58.17
2022-12-26T23:42:38.952Z,58.22
2022-12-26T23:44:43.053Z,58.44
2022-12-26T23:46:47.340Z,58.79
2022-12-26T23:48:50.143Z,58.14
2022-12-26T23:51:01.837Z,57.87
2022-12-26T23:53:04.871Z,58.25
2022-12-26T23:55:08.355Z,57.67
2022-12-26T23:57:11.165Z,58.04
2022-12-26T23:59:14.036Z,57.86
